Time;durP1;ratioP1;P1;durP2;ratioP2;P2;SDS_P1;SDS_P2;PMS_P1;PMS_P2;Temp;Humidity;BMP_temperature;BMP_pressure;BME280_temperature;BME280_humidity;BME280_pressure;Samples;Min_cycle;Max_cycle;Signal;HPM_P1;HPM_P2
2023/08/10 00:01:43;;;;;;;6.72;2.28;;;;;;;18.10;98.94;100978.91;5028768;28;20056;-44
2023/08/10 00:04:09;;;;;;;7.63;2.90;;;;;;;18.08;98.71;100975.69;5033527;28;20155;-43
2023/08/10 00:06:39;;;;;;;6.63;2.10;;;;;;;18.06;99.01;100972.47;5034745;28;20049;-44
2023/08/10 00:09:07;;;;;;;6.40;2.45;;;;;;;18.03;99.10;100970.47;5034526;28;20038;-46
2023/08/10 00:11:35;;;;;;;6.00;2.22;;;;;;;17.97;99.43;100966.41;5034376;28;20103;-44
2023/08/10 00:14:03;;;;;;;8.98;2.28;;;;;;;17.93;99.52;100971.97;5034258;28;20041;-44
2023/08/10 00:16:31;;;;;;;9.10;3.13;;;;;;;17.89;99.54;100961.97;5034091;28;20046;-46
2023/08/10 00:18:59;;;;;;;10.23;2.83;;;;;;;17.87;99.87;100962.31;5034310;28;20052;-44
2023/08/10 00:21:26;;;;;;;9.52;3.17;;;;;;;17.85;99.73;100964.72;5034033;28;20053;-43
2023/08/10 00:23:56;;;;;;;8.02;2.40;;;;;;;17.83;99.64;100961.50;5034087;28;20856;-43
2023/08/10 00:26:23;;;;;;;9.10;2.70;;;;;;;17.81;99.57;100955.50;5032486;28;20438;-43
2023/08/10 00:28:51;;;;;;;9.32;2.72;;;;;;;17.79;99.95;100968.28;5034272;28;20499;-43
2023/08/10 00:31:18;;;;;;;6.05;2.03;;;;;;;17.78;100.00;100963.88;5032092;28;20046;-43
2023/08/10 00:33:45;;;;;;;4.20;1.95;;;;;;;17.76;100.00;100961.47;5033173;28;20048;-44
2023/08/10 00:36:12;;;;;;;7.40;2.30;;;;;;;17.74;100.00;100955.44;5031664;28;20404;-43
2023/08/10 00:38:40;;;;;;;8.65;2.50;;;;;;;17.73;100.00;100959.44;5034124;28;20585;-43
2023/08/10 00:41:07;;;;;;;3.78;1.70;;;;;;;17.70;100.00;100962.19;5033723;28;20033;-43
2023/08/10 00:43:34;;;;;;;4.88;1.58;;;;;;;17.67;100.00;100969.38;5033797;28;20057;-43
2023/08/10 00:46:01;;;;;;;13.90;1.52;;;;;;;17.66;100.00;100964.19;5033554;28;20414;-43
2023/08/10 00:48:30;;;;;;;3.80;2.22;;;;;;;17.63;100.00;100960.16;5034028;28;20049;-43
2023/08/10 00:50:57;;;;;;;4.63;1.77;;;;;;;17.60;100.00;100958.13;5033522;28;20061;-43
2023/08/10 00:53:25;;;;;;;3.55;1.77;;;;;;;17.59;100.00;100968.53;5032545;28;20045;-43
2023/08/10 00:55:53;;;;;;;12.57;2.00;;;;;;;17.57;100.00;100956.09;5033418;28;20071;-44
2023/08/10 00:58:21;;;;;;;7.65;2.30;;;;;;;17.55;100.00;100948.09;5033622;28;20045;-47
2023/08/10 01:00:48;;;;;;;5.03;1.55;;;;;;;17.51;100.00;100943.63;5032209;28;20624;-43
2023/08/10 01:03:16;;;;;;;3.30;1.75;;;;;;;17.44;100.00;100944.38;5033287;28;20405;-43
2023/08/10 01:06:15;;;;;;;4.65;1.40;;;;;;;17.44;100.00;100943.56;5033681;28;20427;-43
2023/08/10 01:09:10;;;;;;;2.80;1.00;;;;;;;17.45;100.00;100929.19;5028714;28;20053;-43
2023/08/10 01:11:57;;;;;;;2.30;0.80;;;;;;;17.46;100.00;100930.00;5033008;28;20053;-44
2023/08/10 01:14:44;;;;;;;2.58;1.00;;;;;;;17.45;100.00;100919.97;5033150;28;20045;-43
2023/08/10 01:17:20;;;;;;;4.28;0.90;;;;;;;17.44;100.00;100929.56;5032792;28;20061;-43
2023/08/10 01:19:52;;;;;;;4.43;1.60;;;;;;;17.41;100.00;100917.16;5033034;28;20088;-43
2023/08/10 01:22:33;;;;;;;2.83;0.95;;;;;;;17.41;100.00;100922.75;5033136;28;20442;-43
2023/08/10 01:25:08;;;;;;;3.78;1.00;;;;;;;17.40;100.00;100923.94;5031447;28;20046;-45
2023/08/10 01:27:36;;;;;;;3.90;0.77;;;;;;;17.39;100.00;100930.75;5032753;28;20060;-45
2023/08/10 01:30:04;;;;;;;4.20;0.80;;;;;;;17.40;100.00;100926.75;5030913;28;20128;-43
2023/08/10 01:32:32;;;;;;;3.15;0.70;;;;;;;17.42;100.00;100937.56;5032500;28;20057;-44
2023/08/10 01:35:00;;;;;;;1.30;0.80;;;;;;;17.40;100.00;100931.53;5032721;28;20053;-43
2023/08/10 01:37:27;;;;;;;2.28;0.57;;;;;;;17.38;100.00;100929.13;5032857;28;20049;-44
2023/08/10 01:39:55;;;;;;;2.00;0.45;;;;;;;17.39;100.00;100930.75;5032671;28;20041;-43
2023/08/10 01:42:24;;;;;;;3.63;1.50;;;;;;;17.37;100.00;100938.69;5032390;28;20045;-43
2023/08/10 01:44:50;;;;;;;3.80;1.05;;;;;;;17.39;100.00;100930.75;5032571;28;20104;-44
2023/08/10 01:47:33;;;;;;;0.70;0.68;;;;;;;17.39;100.00;100933.53;5032693;28;20053;-45
2023/08/10 01:50:04;;;;;;;2.70;0.88;;;;;;;17.39;100.00;100941.13;5032820;28;20052;-44
2023/08/10 01:52:36;;;;;;;0.90;0.52;;;;;;;17.38;100.00;100940.31;5032392;28;20038;-43
2023/08/10 01:55:03;;;;;;;;;;;;;;;17.37;100.00;100930.31;5032786;28;20107;-43
2023/08/10 01:57:31;;;;;;;1.17;0.77;;;;;;;17.36;100.00;100939.09;5032680;28;20341;-44
2023/08/10 01:59:57;;;;;;;2.00;0.70;;;;;;;17.36;100.00;100937.09;5031208;28;20604;-43
2023/08/10 02:02:24;;;;;;;0.68;0.65;;;;;;;17.34;100.00;100936.66;5019450;28;20504;-44
2023/08/10 02:04:51;;;;;;;0.80;0.80;;;;;;;17.34;100.00;100938.69;5032257;28;20041;-43
2023/08/10 02:07:18;;;;;;;1.35;0.80;;;;;;;17.34;100.00;100933.88;5032296;28;20206;-43
2023/08/10 02:09:45;;;;;;;1.10;0.70;;;;;;;17.31;100.00;100936.66;5031983;28;20045;-43
2023/08/10 02:12:12;;;;;;;1.60;0.80;;;;;;;17.28;100.00;100927.03;5032563;28;20064;-43
2023/08/10 02:14:38;;;;;;;1.27;0.90;;;;;;;17.28;100.00;100929.84;5031891;28;20380;-43
2023/08/10 02:17:05;;;;;;;2.53;1.02;;;;;;;17.27;100.00;100925.41;5030836;28;20043;-43
2023/08/10 02:19:32;;;;;;;1.05;0.93;;;;;;;17.26;100.00;100931.41;5031869;28;20053;-43
2023/08/10 02:21:59;;;;;;;3.30;1.20;;;;;;;17.24;100.00;100929.00;5032168;28;20041;-42
2023/08/10 02:24:26;;;;;;;2.25;0.77;;;;;;;17.24;100.00;100925.38;5030277;28;20072;-43
2023/08/10 02:26:52;;;;;;;2.28;0.90;;;;;;;17.23;100.00;100924.59;5031965;28;20056;-43
2023/08/10 02:29:19;;;;;;;3.15;1.48;;;;;;;17.20;100.00;100922.56;5029278;28;20089;-44
2023/08/10 02:31:47;;;;;;;1.65;0.93;;;;;;;17.18;100.00;100922.16;5029952;28;20452;-43
2023/08/10 02:34:13;;;;;;;0.88;0.70;;;;;;;17.15;100.00;100922.91;5031242;28;20045;-43
2023/08/10 02:36:40;;;;;;;2.63;0.90;;;;;;;17.14;100.00;100923.28;5030579;28;20041;-43
2023/08/10 02:39:07;;;;;;;1.83;0.70;;;;;;;17.11;100.00;100924.06;5031444;28;20053;-43
2023/08/10 02:41:34;;;;;;;2.53;0.85;;;;;;;17.10;100.00;100928.06;5031628;28;20037;-44
2023/08/10 02:44:01;;;;;;;0.98;0.63;;;;;;;17.09;100.00;100923.66;5031405;28;20053;-43
2023/08/10 02:46:27;;;;;;;0.82;0.52;;;;;;;17.07;100.00;100914.84;5031798;28;20049;-43
2023/08/10 02:48:54;;;;;;;0.93;0.60;;;;;;;17.07;100.00;100912.84;5029120;28;20081;-44
2023/08/10 02:51:21;;;;;;;2.15;0.45;;;;;;;17.05;100.00;100906.81;5030158;28;20073;-43
2023/08/10 02:53:48;;;;;;;1.08;0.40;;;;;;;17.04;100.00;100902.44;5031266;28;20503;-43
2023/08/10 02:56:15;;;;;;;0.73;0.52;;;;;;;17.03;100.00;100898.00;5031513;28;20503;-44
2023/08/10 02:58:42;;;;;;;1.35;0.40;;;;;;;17.02;100.00;100888.81;5029931;28;20041;-43
2023/08/10 03:01:09;;;;;;;0.82;0.77;;;;;;;17.02;100.00;100891.59;5031559;28;20052;-43
2023/08/10 03:03:36;;;;;;;0.30;0.30;;;;;;;17.00;100.00;100884.78;5031302;28;20045;-44
2023/08/10 03:06:03;;;;;;;0.20;0.20;;;;;;;16.99;100.00;100880.41;5031060;28;20077;-44
2023/08/10 03:08:29;;;;;;;2.70;0.50;;;;;;;16.99;100.00;100883.19;5031012;28;20050;-43
2023/08/10 03:10:56;;;;;;;2.25;0.55;;;;;;;16.97;100.00;100880.00;5031484;28;20045;-43
2023/08/10 03:13:23;;;;;;;3.95;0.80;;;;;;;16.97;100.00;100885.59;5029145;28;20069;-43
2023/08/10 03:15:51;;;;;;;3.67;0.73;;;;;;;16.96;100.00;100883.97;5030730;28;20049;-44
2023/08/10 03:18:18;;;;;;;1.98;0.88;;;;;;;16.93;100.00;100879.13;5031191;28;20574;-44
2023/08/10 03:20:45;;;;;;;2.08;1.45;;;;;;;16.91;100.00;100875.94;5031337;28;20049;-43
2023/08/10 03:23:12;;;;;;;4.57;1.00;;;;;;;16.88;100.00;100868.31;5031084;28;20041;-43
2023/08/10 03:25:39;;;;;;;2.35;1.58;;;;;;;16.85;100.00;100871.88;5030717;28;20168;-43
2023/08/10 03:28:06;;;;;;;3.90;1.98;;;;;;;16.80;100.00;100870.22;5031008;28;20483;-44
2023/08/10 03:30:33;;;;;;;4.40;1.55;;;;;;;16.75;100.00;100867.78;5031153;28;20041;-43
2023/08/10 03:33:00;;;;;;;4.60;1.85;;;;;;;16.73;100.00;100863.78;5030509;28;20045;-44
2023/08/10 03:35:27;;;;;;;3.90;2.05;;;;;;;16.71;100.00;100860.53;5029443;28;20053;-43
2023/08/10 03:37:53;;;;;;;4.50;1.98;;;;;;;16.71;100.00;100861.34;5030884;28;20450;-43
2023/08/10 03:40:20;;;;;;;3.08;2.05;;;;;;;16.70;100.00;100856.16;5031310;28;20045;-43
2023/08/10 03:42:47;;;;;;;5.40;1.73;;;;;;;16.70;100.00;100858.94;5029563;28;20507;-43
2023/08/10 03:45:14;;;;;;;5.32;1.75;;;;;;;16.70;100.00;100858.94;5030888;28;20049;-43
2023/08/10 03:47:41;;;;;;;1.42;0.98;;;;;;;16.67;100.00;100854.91;5030868;28;20056;-43
2023/08/10 03:50:08;;;;;;;4.68;1.20;;;;;;;16.65;100.00;100850.91;5030705;28;20139;-45
2023/08/10 03:52:35;;;;;;;1.90;1.13;;;;;;;16.63;100.00;100847.66;5030591;28;20042;-43
2023/08/10 03:55:03;;;;;;;2.03;1.10;;;;;;;16.61;100.00;100839.69;5030774;28;20049;-43
2023/08/10 03:57:30;;;;;;;3.25;0.95;;;;;;;16.59;100.00;100844.03;5029268;28;20049;-44
2023/08/10 03:59:56;;;;;;;2.30;1.13;;;;;;;16.57;100.00;100854.81;5030891;28;20052;-43
2023/08/10 04:02:23;;;;;;;4.65;0.90;;;;;;;16.55;100.00;100846.00;5017597;28;20088;-43
2023/08/10 04:04:50;;;;;;;3.35;1.15;;;;;;;16.53;100.00;100848.38;5030560;28;20160;-44
2023/08/10 04:07:17;;;;;;;0.65;0.60;;;;;;;16.50;100.00;100849.91;5031008;28;20041;-44
2023/08/10 04:09:47;;;;;;;1.42;0.80;;;;;;;16.48;100.00;100843.09;5030714;28;20500;-44
2023/08/10 04:12:14;;;;;;;1.17;0.80;;;;;;;16.45;100.00;100853.84;5028948;28;20065;-43
2023/08/10 04:14:41;;;;;;;2.97;0.95;;;;;;;16.39;100.00;100844.19;5030667;28;20050;-44
2023/08/10 04:17:08;;;;;;;1.30;0.80;;;;;;;16.36;100.00;100839.38;5030582;28;20053;-43
2023/08/10 04:19:35;;;;;;;3.40;0.52;;;;;;;16.36;100.00;100839.38;5030459;28;20041;-43
2023/08/10 04:22:02;;;;;;;4.63;1.48;;;;;;;16.34;100.00;100836.16;5030470;28;20492;-44
2023/08/10 04:24:29;;;;;;;0.50;0.47;;;;;;;16.35;100.00;100836.97;5030229;28;20049;-44
2023/08/10 04:26:56;;;;;;;0.82;0.68;;;;;;;16.35;100.00;100839.75;5030854;28;20088;-43
2023/08/10 04:29:26;;;;;;;2.42;0.82;;;;;;;16.32;100.00;100834.94;5032912;28;20048;-43
2023/08/10 04:31:53;;;;;;;0.80;0.80;;;;;;;16.32;100.00;100829.34;5033934;28;20045;-43
2023/08/10 04:34:21;;;;;;;1.33;0.80;;;;;;;16.31;100.00;100825.75;5032423;28;20051;-46
2023/08/10 04:36:47;;;;;;;2.35;1.23;;;;;;;16.31;100.00;100822.94;5033823;28;20045;-42
2023/08/10 04:39:14;;;;;;;0.90;0.80;;;;;;;16.31;100.00;100819.34;5033925;28;20062;-43
2023/08/10 04:41:41;;;;;;;0.93;0.90;;;;;;;16.30;100.00;100815.78;5034095;28;20045;-43
2023/08/10 04:44:08;;;;;;;1.70;0.80;;;;;;;16.28;100.00;100820.13;5031529;28;20500;-42
2023/08/10 04:46:35;;;;;;;4.15;1.15;;;;;;;16.26;100.00;100814.91;5033886;28;20103;-42
2023/08/10 04:49:02;;;;;;;4.07;1.15;;;;;;;16.28;100.00;100820.13;5033698;28;20046;-43
2023/08/10 04:51:28;;;;;;;0.75;0.52;;;;;;;16.28;100.00;100820.13;5033553;28;20077;-44
2023/08/10 04:53:55;;;;;;;2.08;0.47;;;;;;;16.29;100.00;100822.53;5033600;28;20377;-42
2023/08/10 04:56:22;;;;;;;1.90;0.75;;;;;;;16.31;100.00;100825.75;5033777;28;20076;-43
2023/08/10 04:58:49;;;;;;;0.75;0.70;;;;;;;16.33;100.00;100831.78;5033502;28;20505;-43
2023/08/10 05:01:15;;;;;;;1.88;1.42;;;;;;;16.34;100.00;100824.97;5033543;28;20057;-43
2023/08/10 05:03:42;;;;;;;4.20;1.58;;;;;;;16.36;100.00;100839.38;5031994;28;20487;-43
2023/08/10 05:06:09;;;;;;;2.78;1.23;;;;;;;16.39;100.00;100837.78;5028486;28;20054;-43
2023/08/10 05:08:36;;;;;;;2.17;1.60;;;;;;;16.39;100.00;100844.19;5032592;28;20041;-43
2023/08/10 05:11:03;;;;;;;4.28;1.70;;;;;;;16.41;100.00;100852.22;5033221;28;20053;-43
2023/08/10 05:13:30;;;;;;;3.97;2.10;;;;;;;16.42;100.00;100848.22;5031833;28;20044;-43
2023/08/10 05:15:57;;;;;;;4.85;1.92;;;;;;;16.43;100.00;100842.25;5033308;28;20811;-43
2023/08/10 05:18:24;;;;;;;2.35;1.80;;;;;;;16.44;100.00;100835.47;5033071;28;20041;-42
2023/08/10 05:20:50;;;;;;;5.32;2.47;;;;;;;16.47;100.00;100845.06;5033142;28;20518;-43
2023/08/10 05:23:17;;;;;;;5.20;2.53;;;;;;;16.49;100.00;100841.91;5033096;28;20087;-43
2023/08/10 05:25:44;;;;;;;4.57;2.25;;;;;;;16.52;100.00;100835.56;5032842;28;20588;-42
2023/08/10 05:28:11;;;;;;;3.63;2.22;;;;;;;16.56;100.00;100830.84;5032798;28;20049;-43
2023/08/10 05:30:37;;;;;;;4.20;2.95;;;;;;;16.58;100.00;100831.25;5032945;28;20127;-43
2023/08/10 05:33:04;;;;;;;5.57;2.70;;;;;;;16.59;100.00;100824.47;5033032;28;20041;-44
2023/08/10 05:35:31;;;;;;;6.53;3.03;;;;;;;16.59;100.00;100830.06;5032956;28;20081;-43
2023/08/10 05:37:58;;;;;;;4.78;2.83;;;;;;;16.61;100.00;100827.69;5032106;28;20099;-43
2023/08/10 05:40:25;;;;;;;4.45;2.42;;;;;;;16.64;100.00;100835.31;5032439;28;20049;-44
2023/08/10 05:42:51;;;;;;;4.13;2.60;;;;;;;16.64;100.00;100836.13;5031071;28;20076;-44
2023/08/10 05:45:19;;;;;;;7.43;2.92;;;;;;;16.66;100.00;100836.53;5032682;28;20088;-45
2023/08/10 05:47:47;;;;;;;5.20;2.55;;;;;;;16.66;100.00;100832.94;5032647;28;20049;-44
2023/08/10 05:50:15;;;;;;;5.53;2.63;;;;;;;16.67;100.00;100820.56;5032618;28;20184;-43
2023/08/10 05:52:43;;;;;;;4.78;2.78;;;;;;;16.69;100.00;100827.38;5032608;28;20438;-43
2023/08/10 05:55:11;;;;;;;4.80;1.98;;;;;;;16.74;100.00;100826.22;5032348;28;20045;-43
2023/08/10 05:57:39;;;;;;;3.63;2.08;;;;;;;16.79;100.00;100842.63;5032255;28;20385;-43
2023/08/10 06:00:07;;;;;;;4.05;2.00;;;;;;;16.80;100.00;100847.06;5032519;28;20042;-44
2023/08/10 06:02:34;;;;;;;5.35;2.00;;;;;;;16.83;100.00;100851.88;5028854;28;20041;-43
2023/08/10 06:05:01;;;;;;;5.22;1.90;;;;;;;16.82;100.00;100850.25;5027099;28;20057;-44
2023/08/10 06:07:28;;;;;;;5.70;2.13;;;;;;;16.83;100.00;100847.09;5032312;28;20056;-43
2023/08/10 06:09:54;;;;;;;5.85;3.35;;;;;;;16.85;100.00;100843.91;5032040;28;20092;-42
2023/08/10 06:12:21;;;;;;;9.57;2.50;;;;;;;16.87;100.00;100849.91;5032443;28;20054;-45
2023/08/10 06:14:48;;;;;;;3.92;1.95;;;;;;;16.88;100.00;100846.75;5031781;28;20053;-43
2023/08/10 06:17:15;;;;;;;5.13;2.13;;;;;;;16.90;100.00;100840.75;5032067;28;20056;-44
2023/08/10 06:19:51;;;;;;;4.40;2.35;;;;;;;16.92;100.00;100841.16;5031746;28;20061;-43
2023/08/10 06:22:19;;;;;;;4.55;2.50;;;;;;;16.94;100.00;100839.59;5029997;28;20522;-43
2023/08/10 06:24:46;;;;;;;5.22;2.50;;;;;;;16.96;100.00;100837.22;5031723;28;20057;-43
2023/08/10 06:27:13;;;;;;;5.28;2.40;;;;;;;17.00;100.00;100837.25;5031824;28;20076;-43
2023/08/10 06:29:40;;;;;;;3.47;2.67;;;;;;;17.02;100.00;100843.28;5031819;28;20060;-45
2023/08/10 06:32:07;;;;;;;6.30;2.55;;;;;;;17.03;100.00;100842.88;5031633;28;20107;-43
2023/08/10 06:34:34;;;;;;;8.25;2.95;;;;;;;17.07;100.00;100851.31;5031592;28;20119;-43
2023/08/10 06:37:02;;;;;;;6.32;2.92;;;;;;;17.09;100.00;100853.72;5028750;28;20534;-43
2023/08/10 06:39:29;;;;;;;7.00;2.65;;;;;;;17.10;100.00;100844.94;5031440;28;20041;-43
2023/08/10 06:41:57;;;;;;;4.70;3.05;;;;;;;17.11;100.00;100849.34;5031689;28;20037;-44
2023/08/10 06:44:24;;;;;;;6.55;3.65;;;;;;;17.15;100.00;100841.78;5031340;28;20049;-43
2023/08/10 06:46:50;;;;;;;6.45;2.90;;;;;;;17.15;100.00;100846.56;5031783;28;20053;-43
2023/08/10 06:49:21;;;;;;;5.18;2.92;;;;;;;17.16;100.00;100837.78;5031017;28;20128;-43
2023/08/10 06:51:51;;;;;;;7.97;3.38;;;;;;;17.18;100.00;100835.41;5029569;28;20038;-43
2023/08/10 06:54:18;;;;;;;5.30;3.40;;;;;;;17.20;100.00;100830.22;5031460;28;20069;-43
2023/08/10 06:56:44;;;;;;;6.45;3.55;;;;;;;17.21;100.00;100834.63;5031264;28;20049;-45
2023/08/10 06:59:12;;;;;;;7.03;4.35;;;;;;;17.25;100.00;100832.66;5031539;28;20049;-42
2023/08/10 07:01:42;;;;;;;11.60;5.53;;;;;;;17.27;100.00;100829.47;5031168;28;20045;-43
2023/08/10 07:04:09;;;;;;;6.78;4.68;;;;;;;17.28;100.00;100829.09;5031198;28;20124;-43
2023/08/10 07:06:35;;;;;;;8.77;5.47;;;;;;;17.29;100.00;100819.50;5030848;28;20077;-42
2023/08/10 07:09:03;;;;;;;8.25;4.35;;;;;;;17.32;100.00;100818.72;5031345;28;20067;-43
2023/08/10 07:11:31;;;;;;;9.15;4.97;;;;;;;17.34;100.00;100821.16;5031161;28;20049;-42
2023/08/10 07:13:57;;;;;;;8.95;6.00;;;;;;;17.37;100.00;100828.75;5030993;28;20052;-43
2023/08/10 07:16:24;;;;;;;10.38;5.88;;;;;;;17.37;100.00;100823.94;5031178;28;20049;-43
2023/08/10 07:18:51;;;;;;;13.40;5.95;;;;;;;17.38;100.00;100828.38;5030937;28;20041;-43
2023/08/10 07:21:18;;;;;;;9.05;4.80;;;;;;;17.38;100.00;100822.78;5029935;28;20491;-43
2023/08/10 07:23:46;;;;;;;7.88;4.97;;;;;;;17.38;100.00;100822.78;5028960;28;20052;-42
2023/08/10 07:26:13;;;;;;;9.20;5.93;;;;;;;17.40;100.00;100813.97;5030537;28;20062;-43
2023/08/10 07:28:42;;;;;;;8.15;5.28;;;;;;;17.39;100.00;100823.56;5030975;28;20052;-44
2023/08/10 07:31:09;;;;;;;8.77;5.78;;;;;;;17.40;100.00;100822.38;5030750;28;20432;-43
2023/08/10 07:33:37;;;;;;;10.38;6.78;;;;;;;17.41;100.00;100815.59;5031329;28;20396;-42
2023/08/10 07:36:04;;;;;;;10.10;5.80;;;;;;;17.40;100.00;100819.56;5030031;28;20045;-43
2023/08/10 07:38:31;;;;;;;10.73;5.53;;;;;;;17.38;100.00;100805.97;5029302;28;20095;-42
2023/08/10 07:40:58;;;;;;;8.70;4.85;;;;;;;17.40;100.00;100798.00;5028192;28;20111;-43
2023/08/10 07:43:25;;;;;;;10.85;5.20;;;;;;;17.42;100.00;100806.00;5031234;28;20042;-43
2023/08/10 07:45:52;;;;;;;10.38;5.47;;;;;;;17.44;100.00;100798.81;5029334;28;20077;-43
2023/08/10 07:48:19;;;;;;;10.82;5.72;;;;;;;17.48;100.00;100805.25;5030911;28;20484;-44
2023/08/10 07:50:46;;;;;;;11.45;6.57;;;;;;;17.49;100.00;100818.06;5030842;28;20045;-42
2023/08/10 07:53:13;;;;;;;12.55;6.72;;;;;;;17.47;100.00;100808.44;5030924;28;20041;-44
2023/08/10 07:55:40;;;;;;;9.05;6.38;;;;;;;17.45;100.00;100820.00;5030779;28;20042;-41
2023/08/10 07:58:07;;;;;;;18.35;7.32;;;;;;;17.44;100.00;100812.81;5030606;28;20048;-41
2023/08/10 08:00:35;;;;;;;22.52;8.80;;;;;;;17.41;100.00;100821.19;5030631;28;20558;-42
2023/08/10 08:03:02;;;;;;;17.88;7.53;;;;;;;17.40;100.00;100820.38;5034043;28;20551;-43
2023/08/10 08:05:29;;;;;;;16.23;8.90;;;;;;;17.42;100.00;100818.00;5034861;28;20080;-43
2023/08/10 08:07:56;;;;;;;13.00;7.72;;;;;;;17.48;100.00;100824.84;5034427;28;20124;-43
2023/08/10 08:10:23;;;;;;;15.73;8.15;;;;;;;17.52;100.00;100828.47;5032808;28;20526;-44
2023/08/10 08:12:49;;;;;;;14.95;7.93;;;;;;;17.57;100.00;100830.94;5031516;28;20046;-42
2023/08/10 08:15:16;;;;;;;15.30;8.25;;;;;;;17.63;100.00;100822.97;5034459;28;20095;-42
2023/08/10 08:18:20;;;;;;;12.63;7.30;;;;;;;17.68;100.00;100825.41;5034328;28;20061;-42
2023/08/10 08:20:47;;;;;;;18.55;8.63;;;;;;;17.75;100.00;100807.81;5031541;28;20065;-43
2023/08/10 08:23:14;;;;;;;14.63;9.20;;;;;;;17.80;100.00;100810.25;5032460;28;20124;-42
2023/08/10 08:25:41;;;;;;;14.20;8.00;;;;;;;17.82;100.00;100805.06;5034040;28;20057;-42
2023/08/10 08:28:08;;;;;;;17.13;8.73;;;;;;;17.85;100.00;100801.47;5034242;28;20400;-42
2023/08/10 08:30:34;;;;;;;14.60;7.78;;;;;;;17.87;100.00;100804.69;5033797;28;20049;-42
2023/08/10 08:33:01;;;;;;;14.57;7.35;;;;;;;17.91;100.00;100809.09;5021053;28;20144;-43
2023/08/10 08:35:29;;;;;;;11.73;7.30;;;;;;;18.00;100.00;100815.13;5034002;28;20477;-42
2023/08/10 08:37:56;;;;;;;13.35;7.28;;;;;;;18.06;100.00;100812.75;5033857;28;20037;-42
2023/08/10 08:40:23;;;;;;;12.90;7.35;;;;;;;18.11;100.00;100809.56;5034008;28;20057;-42
2023/08/10 08:42:51;;;;;;;10.05;7.03;;;;;;;18.30;100.00;100795.22;5031507;28;20049;-41
2023/08/10 08:45:18;;;;;;;8.45;6.00;;;;;;;18.53;100.00;100792.91;5031460;28;20045;-42
2023/08/10 08:47:46;;;;;;;9.80;5.53;;;;;;;18.57;100.00;100802.16;5033876;28;20049;-43
2023/08/10 08:50:15;;;;;;;8.43;4.68;;;;;;;18.55;100.00;100798.94;5032313;28;20516;-42
2023/08/10 08:52:43;;;;;;;8.18;4.75;;;;;;;18.51;100.00;100795.31;5033517;28;20050;-43
2023/08/10 08:55:11;;;;;;;6.70;4.47;;;;;;;18.53;100.00;100798.50;5033583;28;20053;-43
2023/08/10 08:57:38;;;;;;;8.80;5.05;;;;;;;18.57;100.00;100779.72;5033743;28;20132;-43
2023/08/10 09:00:06;;;;;;;10.57;5.13;;;;;;;18.77;100.00;100788.56;5033520;28;20045;-42
2023/08/10 09:02:33;;;;;;;7.63;4.80;;;;;;;18.95;100.00;100782.94;5032484;28;20400;-42
2023/08/10 09:05:05;;;;;;;8.40;3.65;;;;;;;19.32;100.00;100783.31;5033161;28;20124;-42
2023/08/10 09:07:31;;;;;;;8.75;4.32;;;;;;;19.59;100.00;100781.66;5033288;28;20052;-43
2023/08/10 09:09:58;;;;;;;7.50;4.55;;;;;;;19.71;100.00;100772.81;5033238;28;20399;-42
2023/08/10 09:12:31;;;;;;;8.98;3.78;;;;;;;19.71;100.00;100758.78;5032990;28;20470;-44
2023/08/10 09:15:09;;;;;;;6.20;3.55;;;;;;;19.75;100.00;100765.16;5032728;28;20059;-42
2023/08/10 09:17:46;;;;;;;8.35;4.00;;;;;;;19.90;100.00;100763.09;5033400;28;20049;-44
2023/08/10 09:20:19;;;;;;;4.15;3.03;;;;;;;20.28;100.00;100755.72;5033245;28;20056;-42
2023/08/10 09:22:48;;;;;;;5.45;3.22;;;;;;;20.85;100.00;100751.28;5032920;28;20057;-44
2023/08/10 09:25:15;;;;;;;3.92;2.67;;;;;;;21.43;100.00;100752.34;5032882;28;20085;-42
2023/08/10 09:27:42;;;;;;;6.88;3.20;;;;;;;21.54;99.83;100753.03;5033046;28;20484;-42
2023/08/10 09:30:10;;;;;;;4.68;2.30;;;;;;;21.23;98.73;100741.69;5032963;28;20451;-44
2023/08/10 09:32:39;;;;;;;5.75;2.97;;;;;;;21.09;99.97;100750.28;5031381;28;20056;-42
2023/08/10 09:35:12;;;;;;;6.25;2.40;;;;;;;21.13;100.00;100738.97;5032925;28;20068;-43
2023/08/10 09:37:39;;;;;;;4.50;2.70;;;;;;;21.13;99.15;100728.53;5032730;28;20500;-44
2023/08/10 09:40:07;;;;;;;5.65;2.60;;;;;;;21.10;98.61;100728.56;5032583;28;20079;-43
2023/08/10 09:42:34;;;;;;;5.40;3.22;;;;;;;21.02;97.35;100724.97;5033131;28;20043;-42
2023/08/10 09:45:08;;;;;;;5.22;3.10;;;;;;;20.86;96.69;100721.13;5032617;28;20038;-43
2023/08/10 09:47:42;;;;;;;4.28;2.60;;;;;;;20.67;95.61;100733.75;5032522;28;20368;-42
2023/08/10 09:50:12;;;;;;;3.85;2.05;;;;;;;20.51;96.25;100734.28;5032811;28;20141;-42
2023/08/10 09:52:40;;;;;;;3.60;2.55;;;;;;;20.41;95.45;100745.59;5032429;28;20048;-42
2023/08/10 09:55:08;;;;;;;5.35;2.60;;;;;;;20.36;95.30;100729.94;5033030;28;20041;-42
2023/08/10 09:57:40;;;;;;;8.02;2.72;;;;;;;20.33;95.62;100741.22;5031910;28;20045;-43
2023/08/10 10:00:22;;;;;;;5.22;3.58;;;;;;;20.25;95.27;100731.25;5032527;28;20041;-44
2023/08/10 10:02:49;;;;;;;3.90;2.50;;;;;;;20.22;94.33;100741.25;5030637;28;20076;-42
2023/08/10 10:05:19;;;;;;;6.35;3.88;;;;;;;20.25;94.22;100734.06;5032211;28;20046;-43
2023/08/10 10:08:06;;;;;;;5.93;3.05;;;;;;;20.39;93.87;100734.75;5032171;28;20053;-43
2023/08/10 10:10:35;;;;;;;5.82;2.90;;;;;;;20.49;93.09;100733.09;5031060;28;20503;-42
2023/08/10 10:13:05;;;;;;;7.90;3.45;;;;;;;20.47;92.12;100736.28;5032062;28;20049;-43
2023/08/10 10:15:35;;;;;;;7.72;2.80;;;;;;;20.52;92.12;100726.59;5032043;28;20045;-43
2023/08/10 10:18:03;;;;;;;8.20;2.95;;;;;;;20.67;90.90;100716.88;5031912;28;20061;-42
2023/08/10 10:20:30;;;;;;;5.95;2.60;;;;;;;20.83;91.02;100725.56;5032019;28;20053;-45
2023/08/10 10:22:57;;;;;;;7.63;2.60;;;;;;;21.03;89.17;100728.59;5031759;28;20201;-42
2023/08/10 10:25:23;;;;;;;9.15;2.45;;;;;;;21.22;89.55;100711.94;5032181;28;20050;-42
2023/08/10 10:27:51;;;;;;;7.22;2.28;;;;;;;22.06;87.20;100723.41;5032043;28;20052;-43
2023/08/10 10:30:23;;;;;;;4.22;1.95;;;;;;;23.11;83.39;100733.47;5031612;28;20408;-43
2023/08/10 10:32:51;;;;;;;4.30;1.60;;;;;;;23.86;80.57;100736.47;5030571;28;20483;-43
2023/08/10 10:35:25;;;;;;;6.13;1.85;;;;;;;24.52;78.23;100734.19;5031846;28;20054;-44
2023/08/10 10:37:57;;;;;;;2.60;1.90;;;;;;;25.00;76.05;100729.78;5029702;28;20096;-44
2023/08/10 10:40:24;;;;;;;7.60;2.05;;;;;;;25.33;74.13;100737.00;5025493;28;20045;-42
2023/08/10 10:43:00;;;;;;;6.60;2.05;;;;;;;25.38;73.84;100725.94;5031738;28;20613;-43
2023/08/10 10:45:28;;;;;;;2.35;1.27;;;;;;;25.41;72.63;100710.88;5031405;28;20049;-43
2023/08/10 10:48:31;;;;;;;3.05;1.63;;;;;;;25.35;72.84;100723.19;5031317;28;20069;-43
2023/08/10 10:51:02;;;;;;;7.32;1.85;;;;;;;25.28;71.36;100724.16;5031652;28;20038;-44
2023/08/10 10:53:29;;;;;;;4.80;1.50;;;;;;;25.09;71.46;100724.28;5031306;28;20143;-43
2023/08/10 10:55:56;;;;;;;7.30;1.92;;;;;;;24.85;71.41;100728.56;5031387;28;20041;-43
2023/08/10 10:58:28;;;;;;;3.60;1.55;;;;;;;24.50;71.67;100719.69;5031256;28;20060;-43
2023/08/10 11:00:55;;;;;;;6.15;1.67;;;;;;;24.15;72.00;100720.50;5031776;28;20045;-43
2023/08/10 11:03:23;;;;;;;4.35;1.35;;;;;;;23.89;72.84;100702.47;5029818;28;20061;-43
2023/08/10 11:05:50;;;;;;;2.25;1.50;;;;;;;23.68;73.87;100707.75;5031412;28;20049;-43
2023/08/10 11:08:17;;;;;;;4.72;1.60;;;;;;;23.42;73.92;100712.34;5031309;28;20068;-42
2023/08/10 11:10:44;;;;;;;5.55;1.55;;;;;;;23.29;74.87;100714.97;5031431;28;20049;-42
2023/08/10 11:13:11;;;;;;;4.03;1.50;;;;;;;23.13;75.17;100714.88;5029864;28;20076;-43
2023/08/10 11:15:38;;;;;;;6.10;1.40;;;;;;;22.95;75.19;100712.34;5028844;28;20380;-42
2023/08/10 11:18:11;;;;;;;4.10;1.33;;;;;;;22.78;75.66;100707.03;5031005;28;20045;-43
2023/08/10 11:20:45;;;;;;;3.35;1.30;;;;;;;22.64;76.14;100710.88;5031314;28;20085;-43
2023/08/10 11:23:12;;;;;;;6.15;1.40;;;;;;;22.53;76.17;100698.94;5031112;28;20045;-44
2023/08/10 11:25:50;;;;;;;2.55;1.02;;;;;;;22.41;76.32;100703.16;5031077;28;20084;-42